Reklama

Seznam meteostanic a jejich METAR

Vyhledat místa podle abecedy:
A B C D E F G H I J K L M N O P Q R S T U V W X Y Z

Filtrovat:

ID stanice:
a/nebo
Název místa (fulltext):
 
Místo (ID)Naposledy načteno 
Verona (LIPX) 07.04.2020 20:50 UTC Zobrazit METAR
LIPX 072050Z 33003KT CAVOK 11/M03 Q1029
Vienna (LOWW) 07.04.2020 23:50 UTC Zobrazit METAR
LOWW 072350Z 15005KT CAVOK 08/M06 Q1030 NOSIG
Vientiane (VLVT) 08.04.2020 00:00 UTC Zobrazit METAR
VLVT 080000Z 12002KT 7000 BKN040 BKN083 24/23 Q1012 NOSIG
Vieuxfort (TLPL) 07.04.2020 20:00 UTC Zobrazit METAR
TLPL 072000Z 09014KT 9999 SCT027 30/23 Q1014 NOSIG
Vilnius (EYVI) 07.04.2020 23:50 UTC Zobrazit METAR
EYVI 072350Z 30010KT CAVOK 07/03 Q1027 NOSIG
Vitebsk (UMII) Zatím nenačteno  
Volgograd (URWW) Zatím nenačteno  
Voronezh (UUOO) Zatím nenačteno  
Wake Island (PWAK) 07.04.2020 23:58 UTC Zobrazit METAR
PWAK 072358Z AUTO 07014KT 9999 FEW039 BKN050 BKN060 BKN320 28/18 A3002 RMK AO2 SLP172 T02830180 10287 20234 58005 $
Warsaw (EPWA) 08.04.2020 00:00 UTC Zobrazit METAR
EPWA 080000Z 02007KT CAVOK 10/01 Q1031 NOSIG
Washington (KIAD) 07.04.2020 23:52 UTC Zobrazit METAR
KIAD 072352Z 18005KT 10SM FEW060 SCT100 SCT160 16/13 A2976 RMK AO2 SLP078 60030 T01610128 10228 20144 58010
Wellington (NZWN) 08.04.2020 00:00 UTC Zobrazit METAR
NZWN 080000Z AUTO 18009KT 9999 BKN050/// 16/10 Q1011 NOSIG
Windhoek (FYWH) 03.04.2020 12:00 UTC Zobrazit METAR
FYWH 031200Z VRB03KT 9999 FEW050 26/06 Q1021 NOSIG
Wroclaw (EPWR) 08.04.2020 00:00 UTC Zobrazit METAR
EPWR 080000Z 26003KT CAVOK 09/05 Q1032
Yamoussoukro (DIYO) 07.04.2020 21:00 UTC Zobrazit METAR
DIYO 072100Z 30004KT 9999 SCT010 28/27 Q1012 NOSIG
Yangon (VYYY) 08.04.2020 00:00 UTC Zobrazit METAR
VYYY 080000Z 21003KT 4000 BR BKN014 BKN100 25/23 Q1009 NOSIG
Yaounde (FKYS) 07.04.2020 23:00 UTC Zobrazit METAR
FKYS 072300Z 25006KT 210V280 9999 BKN006 25/23 Q1016 NOSIG
Yerevan (UGEE) Zatím nenačteno  
Zadar (LDZD) 08.04.2020 00:00 UTC Zobrazit METAR
LDZD 080000Z VRB03KT CAVOK 05/M05 Q1027
Zagreb (LDZA) 08.04.2020 00:00 UTC Zobrazit METAR
LDZA 080000Z 26002KT CAVOK 01/M05 Q1031 NOSIG
Zaragoza (LEZG) 08.04.2020 00:30 UTC Zobrazit METAR
LEZG 080030Z 12006KT 9999 BKN040 13/09 Q1026
Zhezkazgan (UAKD) Zatím nenačteno  
Zurich (LSZH) 07.04.2020 23:50 UTC Zobrazit METAR
LSZH 072350Z VRB02KT CAVOK 07/02 Q1026 NOSIG
Předchozí 1 ... 7 8 9
Reklama

Počasí na Váš email

Emaily jsou bez reklamy a bez spamu



Odhlásit newsletter

Reklama


Lunární kalendář

  • 15.04.
  • 23.04.
  • 30.04.
  • 07.05.





Vyhledat na internetu:
Reklama